Portada
METAR-TAF:

METAR-TAF

Aeropuertos :

Curazao, Antillas Neerlandesas

Aeropuerto Internacional Hato

latitud: 12-12N, longitud: 068-58W, altitud: 9 m

Observación

El informe se hizo hace 24 minutos, a las 21:00 UTC
Viento 16 kt del este
Temperatura 30°C
Humedad 66%
Presión 1010 hPa
Visibilidad 10 km o más
Nubes dispersas a una altura de 1800 ft

METAR: TNCC 212100Z 10016KT 9999 SCT018 30/23 Q1010 NOSIG

Hora: 17:24 (21:24 UTC)

Pronóstico

El informe se hizo hace 5 horas y 24 minutos, a las 16:00 UTC
Pronóstico válido del 21 a las 18 UTC al 22 a las 18 UTC
Viento 16 kt del este-sureste con ráfagas de 28 kt
Visibilidad 10 km o más
Nubes dispersas a una altura de 2000 ft
Probabilidad 30% :
Temporalmente
del 21 a las 18 UTC al 22 a las 18 UTC
Visibilidad: 8000 m
Cielo nuboso a una altura de 1500 ft
chaparrones de lluvia

TAF: TNCC 211600Z 2118/2218 11016G28KT 9999 SCT020 PROB30 TEMPO 2118/2218 8000 SHRA BKN015

Observaciones y pronósticos meteorológicos de más de 4000 aeropuertos (mensajes METAR y TAF).

Los puntos amarillos y rojos representan las estaciones disponibles.

Ponga el ratón en el punto deseado para ver el nombre de la estación.

Haga clic para ver las observaciones y los pronósticos meteorológicos.

Para cambiar el mapa : haga clic en los botones verdes con una cruz de color negro para hacer un zoom, en el botón verde con un guión para alejar o en las flechas verdes para mapas adyacentes.


METAR-TAF: